sensor_id;sensor_type;location;lat;lon;timestamp;P1;durP1;ratioP1;P2;durP2;ratioP2
1569;SDS011;778;50.120;8.698;2022-10-29T03:01:34;21.53;;;10.50;;
1569;SDS011;778;50.120;8.698;2022-10-29T03:04:03;18.73;;;10.07;;
1569;SDS011;778;50.120;8.698;2022-10-29T03:06:32;13.67;;;9.33;;
1569;SDS011;778;50.120;8.698;2022-10-29T03:09:00;21.70;;;11.73;;
1569;SDS011;778;50.120;8.698;2022-10-29T03:11:28;14.33;;;9.90;;
1569;SDS011;778;50.120;8.698;2022-10-29T03:13:57;15.73;;;9.80;;
1569;SDS011;778;50.120;8.698;2022-10-29T03:16:25;18.47;;;9.27;;
1569;SDS011;778;50.120;8.698;2022-10-29T03:18:55;14.73;;;8.40;;
1569;SDS011;778;50.120;8.698;2022-10-29T03:21:24;13.37;;;9.40;;
1569;SDS011;778;50.120;8.698;2022-10-29T03:23:52;16.80;;;9.43;;
1569;SDS011;778;50.120;8.698;2022-10-29T03:26:21;16.70;;;9.20;;
1569;SDS011;778;50.120;8.698;2022-10-29T03:28:49;15.80;;;9.40;;
1569;SDS011;778;50.120;8.698;2022-10-29T03:31:18;18.97;;;10.80;;
1569;SDS011;778;50.120;8.698;2022-10-29T03:33:46;18.00;;;10.20;;
1569;SDS011;778;50.120;8.698;2022-10-29T03:36:16;15.90;;;10.30;;
1569;SDS011;778;50.120;8.698;2022-10-29T03:38:44;13.53;;;8.40;;
1569;SDS011;778;50.120;8.698;2022-10-29T03:41:12;13.80;;;9.43;;
1569;SDS011;778;50.120;8.698;2022-10-29T03:43:41;17.07;;;9.30;;
1569;SDS011;778;50.120;8.698;2022-10-29T03:46:10;10.90;;;9.00;;
1569;SDS011;778;50.120;8.698;2022-10-29T03:48:38;13.93;;;10.00;;
1569;SDS011;778;50.120;8.698;2022-10-29T03:51:08;15.63;;;10.87;;
1569;SDS011;778;50.120;8.698;2022-10-29T03:53:38;21.07;;;10.10;;
1569;SDS011;778;50.120;8.698;2022-10-29T03:56:07;14.50;;;9.07;;
1569;SDS011;778;50.120;8.698;2022-10-29T03:58:39;15.43;;;9.43;;
1569;SDS011;778;50.120;8.698;2022-10-29T04:01:08;13.47;;;10.50;;
1569;SDS011;778;50.120;8.698;2022-10-29T04:03:37;15.77;;;10.07;;
1569;SDS011;778;50.120;8.698;2022-10-29T04:06:08;18.10;;;10.07;;
1569;SDS011;778;50.120;8.698;2022-10-29T04:08:39;14.90;;;9.50;;
1569;SDS011;778;50.120;8.698;2022-10-29T04:11:09;15.17;;;10.80;;
1569;SDS011;778;50.120;8.698;2022-10-29T04:13:39;16.17;;;9.63;;
1569;SDS011;778;50.120;8.698;2022-10-29T04:16:08;16.33;;;10.30;;
1569;SDS011;778;50.120;8.698;2022-10-29T04:18:36;16.03;;;9.90;;
1569;SDS011;778;50.120;8.698;2022-10-29T04:21:05;20.57;;;11.73;;
1569;SDS011;778;50.120;8.698;2022-10-29T04:23:55;12.33;;;9.70;;
1569;SDS011;778;50.120;8.698;2022-10-29T04:26:43;12.77;;;9.27;;
1569;SDS011;778;50.120;8.698;2022-10-29T04:29:32;13.40;;;9.63;;
1569;SDS011;778;50.120;8.698;2022-10-29T04:32:00;20.93;;;9.90;;
1569;SDS011;778;50.120;8.698;2022-10-29T04:34:29;16.90;;;9.83;;
1569;SDS011;778;50.120;8.698;2022-10-29T04:36:57;21.00;;;10.07;;
1569;SDS011;778;50.120;8.698;2022-10-29T04:39:27;16.93;;;9.00;;
1569;SDS011;778;50.120;8.698;2022-10-29T04:41:55;13.47;;;8.77;;
1569;SDS011;778;50.120;8.698;2022-10-29T04:44:25;12.67;;;8.53;;
1569;SDS011;778;50.120;8.698;2022-10-29T04:46:53;21.17;;;9.50;;
1569;SDS011;778;50.120;8.698;2022-10-29T04:49:22;13.80;;;9.00;;
1569;SDS011;778;50.120;8.698;2022-10-29T04:51:50;16.20;;;8.90;;
1569;SDS011;778;50.120;8.698;2022-10-29T04:54:19;14.30;;;9.30;;
1569;SDS011;778;50.120;8.698;2022-10-29T04:56:48;15.80;;;10.00;;
1569;SDS011;778;50.120;8.698;2022-10-29T04:59:17;17.30;;;10.20;;
1569;SDS011;778;50.120;8.698;2022-10-29T05:01:45;16.80;;;11.03;;
1569;SDS011;778;50.120;8.698;2022-10-29T05:04:14;17.90;;;10.77;;
1569;SDS011;778;50.120;8.698;2022-10-29T05:06:42;15.53;;;9.43;;
1569;SDS011;778;50.120;8.698;2022-10-29T05:09:10;17.80;;;9.23;;
1569;SDS011;778;50.120;8.698;2022-10-29T05:11:39;14.40;;;8.97;;
1569;SDS011;778;50.120;8.698;2022-10-29T05:14:08;14.83;;;9.90;;
1569;SDS011;778;50.120;8.698;2022-10-29T05:16:37;15.53;;;9.13;;
1569;SDS011;778;50.120;8.698;2022-10-29T05:19:05;13.77;;;9.30;;
1569;SDS011;778;50.120;8.698;2022-10-29T05:21:34;15.90;;;10.67;;
1569;SDS011;778;50.120;8.698;2022-10-29T05:24:02;12.93;;;9.60;;
1569;SDS011;778;50.120;8.698;2022-10-29T05:26:31;17.93;;;9.60;;
1569;SDS011;778;50.120;8.698;2022-10-29T05:28:59;12.10;;;9.47;;
1569;SDS011;778;50.120;8.698;2022-10-29T05:31:29;13.27;;;9.30;;
1569;SDS011;778;50.120;8.698;2022-10-29T05:33:58;19.83;;;9.67;;
1569;SDS011;778;50.120;8.698;2022-10-29T05:36:26;16.80;;;10.03;;
1569;SDS011;778;50.120;8.698;2022-10-29T05:38:55;15.00;;;9.10;;
1569;SDS011;778;50.120;8.698;2022-10-29T05:41:23;13.77;;;8.90;;
1569;SDS011;778;50.120;8.698;2022-10-29T05:43:51;20.50;;;10.07;;
1569;SDS011;778;50.120;8.698;2022-10-29T05:46:20;18.13;;;9.83;;
1569;SDS011;778;50.120;8.698;2022-10-29T05:48:49;13.73;;;9.13;;
1569;SDS011;778;50.120;8.698;2022-10-29T05:51:18;15.13;;;9.50;;
1569;SDS011;778;50.120;8.698;2022-10-29T05:53:46;14.93;;;9.80;;
1569;SDS011;778;50.120;8.698;2022-10-29T05:56:15;13.23;;;9.23;;
1569;SDS011;778;50.120;8.698;2022-10-29T05:58:43;14.40;;;9.90;;
1569;SDS011;778;50.120;8.698;2022-10-29T06:01:15;15.40;;;10.40;;
1569;SDS011;778;50.120;8.698;2022-10-29T06:03:45;10.30;;;9.20;;
1569;SDS011;778;50.120;8.698;2022-10-29T06:06:15;16.47;;;9.80;;
1569;SDS011;778;50.120;8.698;2022-10-29T06:08:43;13.50;;;9.90;;
1569;SDS011;778;50.120;8.698;2022-10-29T06:11:12;17.60;;;11.10;;
1569;SDS011;778;50.120;8.698;2022-10-29T06:13:40;15.93;;;10.07;;
1569;SDS011;778;50.120;8.698;2022-10-29T06:16:08;16.30;;;9.47;;
1569;SDS011;778;50.120;8.698;2022-10-29T06:18:37;15.80;;;9.00;;
1569;SDS011;778;50.120;8.698;2022-10-29T06:21:05;17.33;;;9.30;;
1569;SDS011;778;50.120;8.698;2022-10-29T06:23:35;20.17;;;8.93;;
1569;SDS011;778;50.120;8.698;2022-10-29T06:26:04;14.13;;;8.80;;
1569;SDS011;778;50.120;8.698;2022-10-29T06:28:32;14.97;;;9.00;;
1569;SDS011;778;50.120;8.698;2022-10-29T06:31:00;16.30;;;9.10;;
1569;SDS011;778;50.120;8.698;2022-10-29T06:33:29;17.93;;;9.93;;
1569;SDS011;778;50.120;8.698;2022-10-29T06:35:58;15.43;;;9.40;;
1569;SDS011;778;50.120;8.698;2022-10-29T06:38:27;18.90;;;10.27;;
1569;SDS011;778;50.120;8.698;2022-10-29T06:40:57;14.00;;;10.03;;
1569;SDS011;778;50.120;8.698;2022-10-29T06:43:25;16.60;;;10.20;;
1569;SDS011;778;50.120;8.698;2022-10-29T06:45:53;15.33;;;11.20;;
1569;SDS011;778;50.120;8.698;2022-10-29T06:48:22;14.97;;;9.27;;
1569;SDS011;778;50.120;8.698;2022-10-29T06:50:50;15.30;;;9.20;;
1569;SDS011;778;50.120;8.698;2022-10-29T06:53:19;17.93;;;10.40;;
1569;SDS011;778;50.120;8.698;2022-10-29T06:55:47;18.23;;;9.50;;
1569;SDS011;778;50.120;8.698;2022-10-29T06:58:18;16.90;;;9.80;;
1569;SDS011;778;50.120;8.698;2022-10-29T07:00:47;17.13;;;10.60;;
1569;SDS011;778;50.120;8.698;2022-10-29T07:03:17;11.83;;;9.90;;
1569;SDS011;778;50.120;8.698;2022-10-29T07:05:46;20.40;;;10.70;;
1569;SDS011;778;50.120;8.698;2022-10-29T07:08:21;18.03;;;9.67;;
1569;SDS011;778;50.120;8.698;2022-10-29T07:10:50;12.43;;;9.63;;
1569;SDS011;778;50.120;8.698;2022-10-29T07:13:21;11.70;;;9.60;;
1569;SDS011;778;50.120;8.698;2022-10-29T07:15:49;14.03;;;9.80;;
1569;SDS011;778;50.120;8.698;2022-10-29T07:18:18;12.80;;;9.27;;
1569;SDS011;778;50.120;8.698;2022-10-29T07:20:46;13.10;;;9.60;;
1569;SDS011;778;50.120;8.698;2022-10-29T07:23:14;18.63;;;10.60;;
1569;SDS011;778;50.120;8.698;2022-10-29T07:25:43;13.20;;;9.10;;
1569;SDS011;778;50.120;8.698;2022-10-29T07:28:12;19.60;;;9.20;;
1569;SDS011;778;50.120;8.698;2022-10-29T07:30:44;16.57;;;10.23;;
1569;SDS011;778;50.120;8.698;2022-10-29T07:33:13;14.30;;;9.60;;
1569;SDS011;778;50.120;8.698;2022-10-29T07:35:42;20.47;;;8.87;;
1569;SDS011;778;50.120;8.698;2022-10-29T07:38:12;15.97;;;9.03;;
1569;SDS011;778;50.120;8.698;2022-10-29T07:40:45;16.63;;;9.23;;
1569;SDS011;778;50.120;8.698;2022-10-29T07:43:15;18.30;;;9.23;;
1569;SDS011;778;50.120;8.698;2022-10-29T07:45:47;10.97;;;8.20;;
1569;SDS011;778;50.120;8.698;2022-10-29T07:48:18;16.63;;;9.30;;
1569;SDS011;778;50.120;8.698;2022-10-29T07:50:47;14.57;;;9.40;;
1569;SDS011;778;50.120;8.698;2022-10-29T07:53:16;12.70;;;9.17;;
1569;SDS011;778;50.120;8.698;2022-10-29T07:55:51;15.93;;;9.50;;
1569;SDS011;778;50.120;8.698;2022-10-29T07:58:20;18.33;;;10.17;;
1569;SDS011;778;50.120;8.698;2022-10-29T08:00:51;16.47;;;10.03;;
1569;SDS011;778;50.120;8.698;2022-10-29T08:03:20;19.10;;;9.83;;
1569;SDS011;778;50.120;8.698;2022-10-29T08:05:48;16.10;;;9.50;;
1569;SDS011;778;50.120;8.698;2022-10-29T08:08:22;22.83;;;12.07;;
1569;SDS011;778;50.120;8.698;2022-10-29T08:10:50;17.60;;;10.63;;
1569;SDS011;778;50.120;8.698;2022-10-29T08:13:18;17.90;;;9.73;;
1569;SDS011;778;50.120;8.698;2022-10-29T08:15:47;24.93;;;11.50;;
1569;SDS011;778;50.120;8.698;2022-10-29T08:18:17;15.23;;;10.90;;
1569;SDS011;778;50.120;8.698;2022-10-29T08:20:45;27.90;;;11.70;;
1569;SDS011;778;50.120;8.698;2022-10-29T08:23:14;21.67;;;10.40;;
1569;SDS011;778;50.120;8.698;2022-10-29T08:25:43;19.43;;;9.70;;
1569;SDS011;778;50.120;8.698;2022-10-29T08:28:12;13.67;;;8.70;;
1569;SDS011;778;50.120;8.698;2022-10-29T08:30:42;18.70;;;10.60;;
1569;SDS011;778;50.120;8.698;2022-10-29T08:33:17;21.23;;;9.73;;
1569;SDS011;778;50.120;8.698;2022-10-29T08:35:46;20.87;;;10.87;;
1569;SDS011;778;50.120;8.698;2022-10-29T08:38:15;17.87;;;10.67;;
1569;SDS011;778;50.120;8.698;2022-10-29T08:40:47;16.60;;;9.37;;
1569;SDS011;778;50.120;8.698;2022-10-29T08:43:51;19.93;;;11.27;;
1569;SDS011;778;50.120;8.698;2022-10-29T08:46:36;21.43;;;10.83;;
1569;SDS011;778;50.120;8.698;2022-10-29T08:49:12;22.83;;;10.43;;
1569;SDS011;778;50.120;8.698;2022-10-29T08:51:46;19.90;;;10.60;;
1569;SDS011;778;50.120;8.698;2022-10-29T08:54:21;22.80;;;11.47;;
1569;SDS011;778;50.120;8.698;2022-10-29T08:56:57;13.63;;;10.80;;
1569;SDS011;778;50.120;8.698;2022-10-29T08:59:34;23.43;;;10.83;;
1569;SDS011;778;50.120;8.698;2022-10-29T09:02:09;19.30;;;10.63;;
1569;SDS011;778;50.120;8.698;2022-10-29T09:04:44;29.97;;;11.10;;
1569;SDS011;778;50.120;8.698;2022-10-29T09:07:17;28.07;;;11.60;;
1569;SDS011;778;50.120;8.698;2022-10-29T09:10:24;20.47;;;10.80;;
1569;SDS011;778;50.120;8.698;2022-10-29T09:13:03;19.80;;;11.63;;
1569;SDS011;778;50.120;8.698;2022-10-29T09:15:56;21.03;;;9.93;;
1569;SDS011;778;50.120;8.698;2022-10-29T09:18:49;20.03;;;11.20;;
1569;SDS011;778;50.120;8.698;2022-10-29T09:21:32;25.50;;;11.70;;
1569;SDS011;778;50.120;8.698;2022-10-29T09:24:10;16.00;;;12.90;;
1569;SDS011;778;50.120;8.698;2022-10-29T09:26:44;19.73;;;11.30;;
1569;SDS011;778;50.120;8.698;2022-10-29T09:29:24;26.90;;;10.93;;
1569;SDS011;778;50.120;8.698;2022-10-29T09:32:12;19.83;;;11.07;;
1569;SDS011;778;50.120;8.698;2022-10-29T09:34:48;21.00;;;11.80;;
1569;SDS011;778;50.120;8.698;2022-10-29T09:37:21;18.17;;;11.67;;
1569;SDS011;778;50.120;8.698;2022-10-29T09:39:55;17.00;;;11.43;;
1569;SDS011;778;50.120;8.698;2022-10-29T09:42:27;18.13;;;11.70;;
1569;SDS011;778;50.120;8.698;2022-10-29T09:45:03;12.30;;;10.70;;
1569;SDS011;778;50.120;8.698;2022-10-29T09:47:37;20.30;;;11.77;;
1569;SDS011;778;50.120;8.698;2022-10-29T09:50:14;19.70;;;12.10;;
1569;SDS011;778;50.120;8.698;2022-10-29T09:52:54;23.87;;;12.40;;
1569;SDS011;778;50.120;8.698;2022-10-29T09:55:24;17.87;;;11.77;;
1569;SDS011;778;50.120;8.698;2022-10-29T09:57:55;17.50;;;12.27;;
1569;SDS011;778;50.120;8.698;2022-10-29T10:00:25;18.30;;;11.67;;
1569;SDS011;778;50.120;8.698;2022-10-29T10:02:56;24.73;;;12.37;;
1569;SDS011;778;50.120;8.698;2022-10-29T10:05:30;20.53;;;11.97;;
1569;SDS011;778;50.120;8.698;2022-10-29T10:08:06;15.10;;;11.70;;
1569;SDS011;778;50.120;8.698;2022-10-29T10:10:47;22.00;;;14.13;;
1569;SDS011;778;50.120;8.698;2022-10-29T10:13:18;19.73;;;12.50;;
1569;SDS011;778;50.120;8.698;2022-10-29T10:15:53;19.83;;;12.67;;
1569;SDS011;778;50.120;8.698;2022-10-29T10:18:24;14.40;;;12.57;;
1569;SDS011;778;50.120;8.698;2022-10-29T10:21:02;20.83;;;13.43;;
1569;SDS011;778;50.120;8.698;2022-10-29T10:23:45;17.20;;;14.23;;
1569;SDS011;778;50.120;8.698;2022-10-29T10:26:27;15.50;;;13.10;;
1569;SDS011;778;50.120;8.698;2022-10-29T10:29:03;16.20;;;12.83;;
1569;SDS011;778;50.120;8.698;2022-10-29T10:31:41;22.67;;;12.33;;
1569;SDS011;778;50.120;8.698;2022-10-29T10:34:15;17.80;;;11.20;;
1569;SDS011;778;50.120;8.698;2022-10-29T10:36:47;19.30;;;13.40;;
1569;SDS011;778;50.120;8.698;2022-10-29T10:39:22;19.00;;;14.07;;
1569;SDS011;778;50.120;8.698;2022-10-29T10:41:58;18.73;;;14.90;;
1569;SDS011;778;50.120;8.698;2022-10-29T10:44:30;23.03;;;16.60;;
1569;SDS011;778;50.120;8.698;2022-10-29T10:47:05;22.30;;;17.73;;
1569;SDS011;778;50.120;8.698;2022-10-29T10:49:35;29.23;;;18.73;;
1569;SDS011;778;50.120;8.698;2022-10-29T10:52:05;29.57;;;18.70;;
1569;SDS011;778;50.120;8.698;2022-10-29T10:54:44;18.30;;;16.37;;
1569;SDS011;778;50.120;8.698;2022-10-29T10:57:23;26.03;;;18.90;;
1569;SDS011;778;50.120;8.698;2022-10-29T10:59:56;22.37;;;16.60;;
1569;SDS011;778;50.120;8.698;2022-10-29T11:02:34;22.37;;;15.20;;
1569;SDS011;778;50.120;8.698;2022-10-29T11:05:14;25.20;;;15.13;;
1569;SDS011;778;50.120;8.698;2022-10-29T11:07:46;15.10;;;13.60;;
1569;SDS011;778;50.120;8.698;2022-10-29T11:10:24;20.23;;;15.23;;
1569;SDS011;778;50.120;8.698;2022-10-29T11:13:00;21.50;;;14.83;;
1569;SDS011;778;50.120;8.698;2022-10-29T11:15:35;19.53;;;14.10;;
1569;SDS011;778;50.120;8.698;2022-10-29T11:18:11;20.27;;;16.00;;
1569;SDS011;778;50.120;8.698;2022-10-29T11:20:46;21.90;;;13.77;;
1569;SDS011;778;50.120;8.698;2022-10-29T11:23:26;20.00;;;13.47;;
1569;SDS011;778;50.120;8.698;2022-10-29T11:26:06;19.33;;;13.57;;
1569;SDS011;778;50.120;8.698;2022-10-29T11:28:39;17.70;;;13.07;;
1569;SDS011;778;50.120;8.698;2022-10-29T11:31:17;19.87;;;13.90;;
1569;SDS011;778;50.120;8.698;2022-10-29T11:33:53;21.93;;;13.60;;
1569;SDS011;778;50.120;8.698;2022-10-29T11:36:31;16.47;;;12.97;;
1569;SDS011;778;50.120;8.698;2022-10-29T11:39:08;21.87;;;14.07;;
1569;SDS011;778;50.120;8.698;2022-10-29T11:41:45;19.83;;;13.07;;
1569;SDS011;778;50.120;8.698;2022-10-29T11:44:22;15.97;;;13.17;;
1569;SDS011;778;50.120;8.698;2022-10-29T11:47:04;22.07;;;12.73;;
1569;SDS011;778;50.120;8.698;2022-10-29T11:49:55;22.03;;;12.23;;
1569;SDS011;778;50.120;8.698;2022-10-29T11:52:50;16.83;;;13.20;;
1569;SDS011;778;50.120;8.698;2022-10-29T11:55:32;15.70;;;12.90;;
1569;SDS011;778;50.120;8.698;2022-10-29T11:58:12;23.60;;;13.63;;
